Benutzungsordnung PDF Drucken E-Mail

 

 

Die Benutzungsordnung für den Verkehrslandeplatz Uetersen/Heist wurde am 01.01./10.01.2006 neu gefasst und von der zuständigen Landesbehörde in Schleswig-Holstein genehmigt und in Kraft gesetzt. Die Benutzungsordnung regelt die Rechte und Pflichten zwischen den Benutzern und dem Halter des Verkehrslandeplatzes. Die öffentlichen Vorschriften für die Benutzung des Verkehrslandeplatzes bleiben unberührt.

Für Fahrzeuge gilt die Straßenbenutzungsordnung.

 

Sie können die Benutzungsordnung hier als PDF-Datei herunterladen.

 

 

(Zum Öffnen benötigen Sie den Adobe Acrobat Reader, den Sie kostenfrei unter http://get.adobe.com/de/reader/ herunterladen können)

 

Zufallsbild

Aktuelle Termine

Mo Di Mi Do Fr Sa So
1 2 3 4 5 6 7
8 9 10 11 12 13 14
15 16 17 18 19 20 21
22 23 24 25 26 27 28
29 30 31 1 2 3 4

Pilotenwetter

[source: ADDS]
METAR
EDDH 230650Z 18007KT 150V220 CAVOK 18/10 Q1015 NOSIG =
TAF
TAF EDDH 230500Z 2306/2412 12005KT CAVOK BECMG 2306/2309 18007KT BECMG 2309/2312 24010KT TEMPO 2312/2317 28015G35KT SHRA BKN030CB PROB30 TEMPO 2313/2316 30020G45KT 2500 TSRAGR BKN012CB BECMG 2313/2316 30012KT TEMPO 2318/2321 30015G25KT PROB40 TEMPO 2318/2409 BKN007 =